Time;durP1;ratioP1;P1;durP2;ratioP2;P2;SDS_P1;SDS_P2;PMS_P1;PMS_P2;Temp;Humidity;BMP_temperature;BMP_pressure;BME280_temperature;BME280_humidity;BME280_pressure;Samples;Min_cycle;Max_cycle;Signal;HPM_P1;HPM_P2
2021/08/21 00:01:26;;;;;;;6.95;6.40;;;21.10;84.90;;;;;;4173154;28;20048;-62
2021/08/21 00:03:49;;;;;;;7.18;6.50;;;21.00;85.30;;;;;;4189277;28;20524;-62
2021/08/21 00:06:11;;;;;;;7.13;6.57;;;21.10;85.30;;;;;;4175694;28;20144;-62
2021/08/21 00:08:33;;;;;;;8.23;7.53;;;21.00;84.80;;;;;;4190411;28;20131;-62
2021/08/21 00:10:56;;;;;;;7.00;6.40;;;21.10;84.60;;;;;;4190555;28;20424;-62
2021/08/21 00:13:19;;;;;;;7.22;6.57;;;21.10;84.60;;;;;;4190734;28;20157;-62
2021/08/21 00:15:42;;;;;;;7.22;6.63;;;21.00;84.80;;;;;;4189272;28;20044;-62
2021/08/21 00:18:05;;;;;;;7.32;6.72;;;21.10;85.00;;;;;;4190137;28;20064;-61
2021/08/21 00:20:27;;;;;;;6.72;6.20;;;21.00;85.20;;;;;;4190306;28;20049;-62
2021/08/21 00:22:49;;;;;;;7.35;6.65;;;21.00;85.30;;;;;;4190423;28;20139;-62
2021/08/21 00:25:14;;;;;;;7.18;6.65;;;21.00;86.10;;;;;;4190366;28;20114;-62
2021/08/21 00:27:35;;;;;;;6.85;6.25;;;21.00;85.10;;;;;;4192991;28;20061;-61
2021/08/21 00:29:57;;;;;;;7.90;7.20;;;21.00;85.30;;;;;;4193553;28;20052;-62
2021/08/21 00:32:20;;;;;;;6.68;6.18;;;21.00;85.40;;;;;;4193363;28;20118;-62
2021/08/21 00:34:42;;;;;;;6.32;5.72;;;21.00;85.30;;;;;;4193261;28;20078;-62
2021/08/21 00:37:05;;;;;;;7.00;6.38;;;21.00;85.40;;;;;;4210203;28;20044;-62
2021/08/21 00:39:27;;;;;;;7.38;6.70;;;21.00;85.50;;;;;;4207032;28;20082;-61
2021/08/21 00:41:49;;;;;;;7.47;6.78;;;21.00;85.50;;;;;;4209738;28;20048;-62
2021/08/21 00:44:12;;;;;;;6.45;5.93;;;21.00;85.50;;;;;;4200806;28;20056;-62
2021/08/21 00:46:34;;;;;;;7.55;6.88;;;21.00;85.40;;;;;;4193632;28;20058;-62
2021/08/21 00:48:58;;;;;;;7.13;6.53;;;21.00;85.50;;;;;;4209961;28;20064;-61
2021/08/21 00:51:19;;;;;;;7.45;6.85;;;21.00;85.40;;;;;;4209652;28;20060;-62
2021/08/21 00:53:42;;;;;;;7.50;6.90;;;21.00;85.40;;;;;;4208506;28;20093;-62
2021/08/21 00:56:06;;;;;;;7.18;6.43;;;21.00;85.50;;;;;;4191007;28;20810;-62
2021/08/21 00:58:29;;;;;;;7.03;6.32;;;21.00;85.40;;;;;;4192041;28;20056;-62
2021/08/21 01:00:53;;;;;;;7.63;7.03;;;21.00;85.30;;;;;;4191768;28;20103;-62
2021/08/21 01:03:15;;;;;;;7.45;6.75;;;21.00;85.00;;;;;;4193433;28;20098;-62
2021/08/21 01:05:38;;;;;;;7.07;6.47;;;20.90;85.00;;;;;;4191544;28;20473;-62
2021/08/21 01:08:01;;;;;;;6.85;6.25;;;20.90;85.10;;;;;;4192988;28;20051;-62
2021/08/21 01:10:25;;;;;;;7.18;6.43;;;20.90;85.30;;;;;;4191337;28;20476;-62
2021/08/21 01:12:50;;;;;;;9.77;7.45;;;20.90;86.20;;;;;;4202311;28;20130;-61
2021/08/21 01:15:12;;;;;;;7.38;6.78;;;20.90;85.00;;;;;;4207390;28;20054;-62
2021/08/21 01:17:35;;;;;;;8.38;6.70;;;20.90;85.00;;;;;;4207867;28;20089;-62
2021/08/21 01:19:59;;;;;;;6.45;5.95;;;20.90;85.70;;;;;;4209421;28;20482;-61
2021/08/21 01:22:26;;;;;;;7.20;6.55;;;20.90;85.40;;;;;;4208112;28;20047;-62
2021/08/21 01:24:58;;;;;;;7.40;6.70;;;20.90;85.40;;;;;;4188760;28;20621;-61
2021/08/21 01:27:23;;;;;;;7.13;6.63;;;20.90;85.60;;;;;;4207941;28;20508;-61
2021/08/21 01:30:18;;;;;;;6.55;6.03;;;20.90;85.50;;;;;;4203021;28;20049;-62
2021/08/21 01:32:49;;;;;;;6.97;6.30;;;20.90;85.60;;;;;;4209027;28;20561;-62
2021/08/21 01:35:17;;;;;;;6.85;6.20;;;20.90;85.20;;;;;;4207198;28;20102;-62
2021/08/21 01:37:39;;;;;;;6.85;6.25;;;20.90;85.40;;;;;;4207346;28;20048;-62
2021/08/21 01:40:20;;;;;;;6.40;5.90;;;20.90;85.50;;;;;;4198004;28;20066;-62
2021/08/21 01:42:44;;;;;;;6.80;6.20;;;20.90;85.80;;;;;;4192171;28;20502;-62
2021/08/21 01:45:11;;;;;;;6.55;6.05;;;20.80;85.60;;;;;;4192168;28;20040;-61
2021/08/21 01:47:34;;;;;;;6.20;5.70;;;20.90;85.70;;;;;;4190656;28;20048;-62
2021/08/21 01:49:59;;;;;;;6.82;5.88;;;20.90;85.70;;;;;;4190364;28;20105;-62
2021/08/21 01:52:23;;;;;;;6.38;5.65;;;20.90;85.60;;;;;;4186043;28;20045;-62
2021/08/21 01:54:45;;;;;;;6.97;6.28;;;20.80;85.70;;;;;;4190512;28;20056;-62
2021/08/21 01:57:07;;;;;;;6.63;6.13;;;20.80;85.70;;;;;;4190500;28;20063;-61
2021/08/21 01:59:51;;;;;;;6.68;6.18;;;20.80;85.60;;;;;;4191656;28;20052;-62
2021/08/21 02:02:32;;;;;;;6.95;6.25;;;20.80;85.70;;;;;;4191884;28;20131;-62
2021/08/21 02:05:06;;;;;;;7.45;6.50;;;20.80;85.70;;;;;;4190184;28;20532;-62
2021/08/21 02:07:28;;;;;;;6.70;6.13;;;20.80;85.60;;;;;;4208487;28;20098;-62
2021/08/21 02:09:51;;;;;;;6.93;6.28;;;20.80;85.60;;;;;;4199364;28;20073;-61
2021/08/21 02:12:16;;;;;;;6.78;6.18;;;20.80;85.60;;;;;;4190502;28;20584;-62
2021/08/21 02:14:45;;;;;;;7.10;6.53;;;20.80;85.60;;;;;;4190288;28;20051;-62
2021/08/21 02:17:08;;;;;;;6.63;6.13;;;20.80;85.60;;;;;;4191762;28;20054;-62
2021/08/21 02:19:41;;;;;;;6.55;6.05;;;20.80;85.70;;;;;;4198170;28;20097;-62
2021/08/21 02:22:09;;;;;;;7.25;6.65;;;20.80;85.80;;;;;;4206756;28;20047;-62
2021/08/21 02:24:33;;;;;;;7.15;6.55;;;20.80;85.90;;;;;;4200942;28;20123;-62
2021/08/21 02:26:59;;;;;;;7.35;6.35;;;20.80;85.90;;;;;;4206228;28;20051;-61
2021/08/21 02:29:21;;;;;;;7.30;6.70;;;20.80;86.00;;;;;;4207018;28;20074;-62
2021/08/21 02:31:43;;;;;;;7.30;6.72;;;20.80;85.80;;;;;;4208075;28;20052;-62
2021/08/21 02:34:08;;;;;;;7.47;6.88;;;20.80;85.90;;;;;;4208419;28;20048;-61
2021/08/21 02:36:31;;;;;;;7.05;6.45;;;20.80;86.10;;;;;;4208142;28;20048;-62
2021/08/21 02:38:53;;;;;;;7.10;6.60;;;20.80;85.90;;;;;;4204093;28;20525;-62
2021/08/21 02:41:15;;;;;;;7.65;7.05;;;20.80;85.70;;;;;;4191296;28;20544;-62
2021/08/21 02:43:37;;;;;;;7.60;6.88;;;20.80;85.80;;;;;;4195459;28;20044;-62
2021/08/21 02:45:59;;;;;;;8.63;7.82;;;20.80;85.90;;;;;;4208026;28;20569;-62
2021/08/21 02:48:21;;;;;;;8.73;7.70;;;20.80;86.00;;;;;;4206209;28;20190;-62
2021/08/21 02:50:45;;;;;;;7.53;6.93;;;20.80;86.10;;;;;;4206651;28;20478;-62
2021/08/21 02:53:07;;;;;;;7.40;6.80;;;20.80;86.10;;;;;;4208251;28;20048;-62
2021/08/21 02:55:29;;;;;;;7.43;6.80;;;20.80;86.10;;;;;;4189191;28;20511;-62
2021/08/21 02:57:51;;;;;;;7.78;6.93;;;20.80;86.20;;;;;;4206923;28;20148;-62
2021/08/21 03:00:20;;;;;;;8.30;7.45;;;20.80;86.10;;;;;;4206290;28;20048;-63
2021/08/21 03:02:47;;;;;;;7.50;6.60;;;20.80;86.20;;;;;;4206295;28;20552;-62
2021/08/21 03:05:10;;;;;;;8.48;7.18;;;20.80;86.20;;;;;;4196029;28;20065;-61
2021/08/21 03:07:34;;;;;;;7.90;7.10;;;20.80;86.40;;;;;;4206021;28;20425;-62
2021/08/21 03:09:58;;;;;;;8.38;7.55;;;20.70;86.50;;;;;;4193514;28;20053;-62
2021/08/21 03:12:33;;;;;;;7.22;6.53;;;20.80;86.70;;;;;;4189354;28;20569;-62
2021/08/21 03:14:58;;;;;;;8.15;7.53;;;20.80;86.60;;;;;;4203357;28;20047;-62
2021/08/21 03:17:20;;;;;;;8.45;7.75;;;20.70;86.60;;;;;;4206086;28;20383;-62
2021/08/21 03:19:43;;;;;;;8.32;7.60;;;20.80;86.70;;;;;;4206591;28;20520;-62
2021/08/21 03:22:06;;;;;;;8.60;7.80;;;20.80;86.70;;;;;;4206414;28;20421;-62
2021/08/21 03:24:32;;;;;;;7.32;6.50;;;20.80;86.70;;;;;;4196947;28;20489;-62
2021/08/21 03:26:54;;;;;;;8.57;7.78;;;20.70;86.80;;;;;;4203579;28;20062;-62
2021/08/21 03:29:16;;;;;;;7.88;6.88;;;20.70;86.70;;;;;;4206064;28;20048;-62
2021/08/21 03:31:39;;;;;;;7.82;7.22;;;20.80;86.80;;;;;;4206407;28;20506;-62
2021/08/21 03:34:01;;;;;;;9.35;8.40;;;20.70;86.80;;;;;;4206114;28;20072;-62
2021/08/21 03:36:23;;;;;;;8.90;7.88;;;20.80;86.90;;;;;;4207842;28;20776;-62
2021/08/21 03:38:45;;;;;;;9.38;8.05;;;20.70;86.90;;;;;;4202160;28;20054;-62
2021/08/21 03:41:15;;;;;;;9.15;8.23;;;20.80;86.90;;;;;;4189269;28;20491;-62
2021/08/21 03:43:58;;;;;;;8.75;7.97;;;20.80;87.80;;;;;;4189207;28;20632;-62
2021/08/21 03:46:20;;;;;;;11.02;9.68;;;20.70;87.10;;;;;;4189265;28;20075;-62
2021/08/21 03:48:43;;;;;;;9.48;8.75;;;20.70;87.10;;;;;;4189572;28;20106;-62
2021/08/21 03:51:05;;;;;;;13.20;9.85;;;20.70;87.10;;;;;;4190549;28;20506;-62
2021/08/21 03:53:33;;;;;;;9.77;8.80;;;20.70;87.10;;;;;;4189360;28;21890;-62
2021/08/21 03:56:02;;;;;;;9.48;8.68;;;20.70;87.10;;;;;;4189119;28;20048;-62
2021/08/21 03:58:29;;;;;;;10.48;9.57;;;20.70;87.10;;;;;;4189514;28;20714;-62
2021/08/21 04:00:52;;;;;;;8.85;8.02;;;20.70;87.10;;;;;;4199261;28;20060;-62
2021/08/21 04:03:14;;;;;;;9.13;8.32;;;20.70;87.20;;;;;;4208630;28;20055;-62
2021/08/21 04:05:36;;;;;;;13.90;9.25;;;20.70;87.20;;;;;;4209765;28;20101;-62
2021/08/21 04:07:59;;;;;;;9.30;8.05;;;20.70;87.20;;;;;;4209254;28;20116;-62
2021/08/21 04:10:21;;;;;;;9.25;8.45;;;20.70;87.20;;;;;;4175691;28;20068;-62
2021/08/21 04:12:44;;;;;;;9.27;8.50;;;20.70;87.20;;;;;;4175950;28;20048;-62
2021/08/21 04:15:12;;;;;;;9.95;9.10;;;20.70;87.20;;;;;;4176124;28;20049;-62
2021/08/21 04:17:33;;;;;;;9.60;8.70;;;20.70;87.20;;;;;;4175678;28;20206;-62
2021/08/21 04:19:55;;;;;;;9.90;8.98;;;20.70;87.30;;;;;;4175487;28;20554;-62
2021/08/21 04:22:18;;;;;;;10.18;9.20;;;20.70;87.30;;;;;;4177146;28;20135;-62
2021/08/21 04:24:46;;;;;;;8.48;7.68;;;20.70;87.30;;;;;;4193657;28;20050;-62
2021/08/21 04:27:09;;;;;;;9.48;8.57;;;20.70;87.30;;;;;;4209129;28;20058;-62
2021/08/21 04:29:32;;;;;;;9.25;7.78;;;20.70;87.30;;;;;;4191970;28;20049;-62
2021/08/21 04:31:55;;;;;;;9.63;8.77;;;20.70;87.30;;;;;;4191981;28;20060;-62
2021/08/21 04:34:18;;;;;;;10.40;8.40;;;20.70;87.30;;;;;;4191656;28;20056;-62
2021/08/21 04:36:41;;;;;;;10.07;9.18;;;20.70;87.40;;;;;;4191850;28;20453;-62
2021/08/21 04:39:05;;;;;;;10.80;9.65;;;20.70;87.30;;;;;;4199455;28;20048;-62
2021/08/21 04:41:28;;;;;;;10.05;8.48;;;20.70;87.10;;;;;;4208961;28;20968;-62
2021/08/21 04:43:52;;;;;;;10.38;9.48;;;20.70;87.10;;;;;;4208832;28;20509;-61
2021/08/21 04:46:14;;;;;;;10.23;9.38;;;20.70;87.10;;;;;;4193458;28;20063;-62
2021/08/21 04:48:39;;;;;;;9.93;8.80;;;20.70;87.20;;;;;;4191220;28;20060;-62
2021/08/21 04:51:01;;;;;;;10.93;9.85;;;20.70;87.30;;;;;;4191557;28;20044;-63
2021/08/21 04:53:25;;;;;;;10.00;9.10;;;20.60;87.30;;;;;;4193491;28;20056;-62
2021/08/21 04:55:48;;;;;;;10.10;9.10;;;20.60;87.30;;;;;;4208664;28;20055;-62
2021/08/21 04:58:11;;;;;;;9.90;9.05;;;20.70;87.40;;;;;;4208375;28;20052;-62
2021/08/21 05:00:33;;;;;;;10.70;9.73;;;20.60;87.40;;;;;;4209927;28;20142;-62
2021/08/21 05:03:02;;;;;;;9.80;8.82;;;20.70;87.50;;;;;;4208212;28;20056;-62
2021/08/21 05:05:28;;;;;;;9.63;8.63;;;20.70;87.50;;;;;;4208198;28;20048;-62
2021/08/21 05:07:52;;;;;;;11.07;10.05;;;20.70;87.40;;;;;;4207878;28;20060;-62
2021/08/21 05:10:16;;;;;;;9.68;8.75;;;20.70;87.40;;;;;;4177477;28;20049;-62
2021/08/21 05:12:39;;;;;;;10.57;8.95;;;20.70;87.50;;;;;;4190835;28;20442;-62
2021/08/21 05:15:07;;;;;;;10.02;9.10;;;20.70;87.50;;;;;;4198231;28;20052;-62
2021/08/21 05:17:29;;;;;;;10.57;9.57;;;20.70;87.50;;;;;;4208442;28;20081;-62
2021/08/21 05:20:05;;;;;;;10.38;9.48;;;20.70;87.50;;;;;;4207758;28;20102;-62
2021/08/21 05:22:47;;;;;;;9.15;8.38;;;20.70;87.50;;;;;;4207500;28;20052;-61
2021/08/21 05:25:14;;;;;;;9.48;8.68;;;20.70;87.60;;;;;;4174462;28;20053;-62
2021/08/21 05:27:36;;;;;;;10.30;9.30;;;20.60;87.60;;;;;;4175877;28;20049;-62
2021/08/21 05:29:58;;;;;;;10.95;9.73;;;20.60;87.60;;;;;;4175992;28;20053;-62
2021/08/21 05:32:21;;;;;;;9.45;8.55;;;20.60;87.50;;;;;;4174629;28;20055;-62
2021/08/21 05:34:43;;;;;;;10.13;9.23;;;20.70;87.60;;;;;;4188407;28;20040;-62
2021/08/21 05:37:06;;;;;;;9.65;8.68;;;20.70;87.70;;;;;;4176255;28;20049;-63
2021/08/21 05:39:32;;;;;;;9.90;9.02;;;20.60;87.70;;;;;;4188635;28;20094;-62
2021/08/21 05:41:54;;;;;;;10.00;9.00;;;20.60;87.70;;;;;;4192478;28;20064;-62
2021/08/21 05:44:16;;;;;;;10.00;9.13;;;20.70;87.80;;;;;;4192355;28;20044;-62
2021/08/21 05:46:38;;;;;;;11.25;10.15;;;20.60;87.90;;;;;;4208644;28;20048;-62
2021/08/21 05:49:00;;;;;;;10.57;9.52;;;20.60;88.10;;;;;;4208345;28;20044;-62
2021/08/21 05:51:22;;;;;;;10.50;9.45;;;20.70;88.40;;;;;;4207956;28;20098;-64
2021/08/21 05:53:44;;;;;;;10.45;9.35;;;20.70;88.30;;;;;;4196342;28;20048;-62
2021/08/21 05:56:08;;;;;;;12.27;10.70;;;20.70;88.40;;;;;;4197768;28;20072;-62
2021/08/21 05:58:30;;;;;;;10.90;9.93;;;20.70;88.50;;;;;;4188298;28;20049;-62
2021/08/21 06:00:52;;;;;;;11.43;10.50;;;20.70;88.40;;;;;;4192020;28;20080;-62
2021/08/21 06:03:17;;;;;;;10.98;9.88;;;20.70;88.30;;;;;;4185354;28;20557;-62
2021/08/21 06:05:41;;;;;;;11.23;10.13;;;20.80;88.40;;;;;;4208236;28;20048;-62
2021/08/21 06:08:04;;;;;;;10.82;9.73;;;20.80;88.40;;;;;;4205130;28;20089;-62
2021/08/21 06:10:33;;;;;;;11.40;10.30;;;20.80;88.40;;;;;;4190269;28;20072;-63
2021/08/21 06:12:57;;;;;;;10.60;9.50;;;20.70;88.30;;;;;;4190324;28;20045;-62
2021/08/21 06:15:19;;;;;;;13.20;9.93;;;20.70;88.40;;;;;;4191788;28;20045;-62
2021/08/21 06:17:41;;;;;;;10.63;9.63;;;20.70;88.30;;;;;;4191895;28;20159;-63
2021/08/21 06:20:08;;;;;;;10.63;9.73;;;20.80;88.40;;;;;;4191866;28;20486;-63
2021/08/21 06:22:29;;;;;;;10.57;9.63;;;20.80;88.40;;;;;;4191475;28;20106;-63
2021/08/21 06:24:52;;;;;;;14.10;11.20;;;20.70;88.40;;;;;;4190591;28;20135;-63
2021/08/21 06:27:14;;;;;;;11.95;10.82;;;20.80;88.40;;;;;;4191627;28;20076;-62
2021/08/21 06:29:37;;;;;;;13.15;11.13;;;20.70;88.30;;;;;;4191440;28;20040;-63
2021/08/21 06:31:59;;;;;;;14.20;11.18;;;20.80;88.40;;;;;;4191719;28;20102;-63
2021/08/21 06:34:21;;;;;;;12.85;11.63;;;20.70;88.30;;;;;;4185372;28;20410;-63
2021/08/21 06:36:43;;;;;;;12.80;11.60;;;20.80;88.40;;;;;;4191478;28;20699;-62
2021/08/21 06:39:06;;;;;;;13.50;12.13;;;20.80;88.40;;;;;;4192385;28;20063;-63
2021/08/21 06:41:28;;;;;;;14.07;12.77;;;20.70;88.40;;;;;;4191492;28;20089;-62
2021/08/21 06:43:50;;;;;;;12.70;11.40;;;20.80;88.20;;;;;;4191685;28;20051;-62
2021/08/21 06:46:32;;;;;;;12.80;11.57;;;20.80;88.30;;;;;;4191172;28;20059;-62
2021/08/21 06:48:55;;;;;;;13.38;12.07;;;20.70;88.10;;;;;;4207831;28;20058;-62
2021/08/21 06:51:17;;;;;;;13.00;11.70;;;20.70;89.00;;;;;;4205817;28;20124;-62
2021/08/21 06:53:41;;;;;;;13.15;11.85;;;20.80;90.30;;;;;;4182078;28;20131;-62
2021/08/21 06:56:04;;;;;;;13.65;12.20;;;20.80;90.40;;;;;;4206773;28;20051;-62
2021/08/21 06:58:26;;;;;;;14.45;12.88;;;20.80;90.40;;;;;;4197323;28;20409;-62
2021/08/21 07:00:49;;;;;;;13.60;12.20;;;20.90;90.60;;;;;;4200115;28;20064;-62
2021/08/21 07:03:12;;;;;;;13.73;12.52;;;20.90;90.70;;;;;;4188770;28;20052;-62
2021/08/21 07:05:35;;;;;;;14.13;12.73;;;20.90;90.70;;;;;;4190698;28;20132;-62
2021/08/21 07:07:57;;;;;;;13.68;12.27;;;20.90;90.60;;;;;;4180248;28;20134;-62
2021/08/21 07:10:19;;;;;;;15.32;13.23;;;20.90;90.50;;;;;;4191293;28;20052;-63
2021/08/21 07:12:41;;;;;;;15.95;14.25;;;20.90;90.50;;;;;;4191110;28;20044;-62
2021/08/21 07:15:03;;;;;;;15.32;13.50;;;20.90;90.30;;;;;;4190748;28;20089;-63
2021/08/21 07:17:26;;;;;;;14.50;13.02;;;20.90;90.20;;;;;;4190960;28;20048;-63
2021/08/21 07:19:49;;;;;;;14.50;13.20;;;20.90;90.00;;;;;;4174064;28;20130;-63
2021/08/21 07:22:11;;;;;;;13.77;12.38;;;20.90;90.00;;;;;;4174588;28;20056;-62
2021/08/21 07:24:33;;;;;;;15.45;13.90;;;20.90;89.90;;;;;;4188973;28;20135;-62
2021/08/21 07:26:55;;;;;;;15.15;13.75;;;20.90;89.90;;;;;;4183180;28;20057;-62
2021/08/21 07:29:18;;;;;;;16.85;15.15;;;20.90;89.90;;;;;;4190421;28;20052;-63
2021/08/21 07:31:40;;;;;;;16.42;14.73;;;20.90;89.70;;;;;;4190377;28;20517;-62
2021/08/21 07:34:02;;;;;;;16.77;15.15;;;20.90;89.60;;;;;;4191055;28;20131;-62
2021/08/21 07:36:26;;;;;;;16.67;15.07;;;20.90;89.60;;;;;;4194126;28;20048;-62
2021/08/21 07:38:49;;;;;;;17.73;16.10;;;20.90;89.50;;;;;;4193562;28;20131;-62
2021/08/21 07:41:11;;;;;;;17.35;15.65;;;20.90;90.10;;;;;;4194413;28;20052;-62
2021/08/21 07:43:33;;;;;;;19.02;17.02;;;20.90;89.60;;;;;;4194354;28;20051;-62
2021/08/21 07:45:55;;;;;;;17.00;15.40;;;20.90;89.70;;;;;;4210841;28;20062;-62
2021/08/21 07:48:18;;;;;;;18.42;16.60;;;20.90;89.80;;;;;;4210971;28;20858;-62
2021/08/21 07:50:40;;;;;;;18.80;16.77;;;20.90;89.90;;;;;;4203642;28;20102;-62
2021/08/21 07:53:06;;;;;;;22.00;18.15;;;20.90;90.00;;;;;;4193089;28;20064;-61
2021/08/21 07:55:29;;;;;;;18.92;17.13;;;20.90;90.00;;;;;;4177458;28;20053;-62
2021/08/21 07:57:51;;;;;;;19.85;18.05;;;20.90;90.10;;;;;;4182507;28;20060;-62
2021/08/21 08:00:14;;;;;;;18.83;17.02;;;21.00;90.10;;;;;;4193992;28;20115;-62
2021/08/21 08:02:36;;;;;;;20.45;18.45;;;21.00;90.10;;;;;;4192983;28;20048;-62
2021/08/21 08:04:58;;;;;;;20.83;18.65;;;21.00;90.10;;;;;;4183782;28;20055;-62
2021/08/21 08:07:20;;;;;;;20.67;18.52;;;21.00;90.10;;;;;;4192684;28;20776;-62
2021/08/21 08:09:44;;;;;;;18.92;17.02;;;21.10;90.20;;;;;;4177020;28;20499;-62
2021/08/21 08:12:07;;;;;;;19.73;17.77;;;21.10;90.20;;;;;;4187236;28;20474;-62
2021/08/21 08:14:29;;;;;;;20.15;18.17;;;21.10;90.20;;;;;;4193723;28;20047;-62
2021/08/21 08:16:51;;;;;;;20.92;19.10;;;21.20;90.20;;;;;;4193459;28;20582;-62
2021/08/21 08:19:13;;;;;;;20.70;18.70;;;21.20;90.30;;;;;;4194602;28;20079;-62
2021/08/21 08:21:35;;;;;;;21.05;19.00;;;21.20;90.30;;;;;;4193499;28;20072;-62
2021/08/21 08:23:58;;;;;;;20.92;18.88;;;21.30;90.30;;;;;;4194598;28;20044;-62
2021/08/21 08:26:21;;;;;;;20.38;18.38;;;21.30;90.20;;;;;;4193106;28;20490;-62
2021/08/21 08:28:43;;;;;;;20.88;18.88;;;21.30;90.10;;;;;;4210221;28;20486;-63
2021/08/21 08:31:06;;;;;;;20.85;18.75;;;21.30;90.20;;;;;;4195066;28;20052;-62
2021/08/21 08:33:29;;;;;;;20.23;18.20;;;21.30;90.20;;;;;;4193320;28;20040;-62
2021/08/21 08:35:51;;;;;;;20.13;17.65;;;21.30;90.10;;;;;;4176987;28;20056;-61
2021/08/21 08:38:13;;;;;;;17.95;16.10;;;21.40;90.20;;;;;;4197417;28;20495;-61
2021/08/21 08:40:35;;;;;;;18.92;17.05;;;21.40;90.30;;;;;;4196311;28;20102;-61
2021/08/21 08:43:02;;;;;;;17.67;15.88;;;21.40;90.20;;;;;;4176820;28;20419;-61
2021/08/21 08:45:23;;;;;;;17.23;15.50;;;21.50;90.10;;;;;;4195782;28;20052;-62
2021/08/21 08:47:46;;;;;;;16.73;15.05;;;21.50;90.00;;;;;;4190092;28;20519;-61
2021/08/21 08:50:10;;;;;;;17.38;15.52;;;21.50;89.90;;;;;;4192987;28;20150;-61
2021/08/21 08:52:34;;;;;;;19.98;16.00;;;21.60;89.70;;;;;;4192578;28;20799;-60
2021/08/21 08:54:56;;;;;;;16.73;15.10;;;21.60;89.50;;;;;;4186922;28;20165;-61
2021/08/21 08:57:33;;;;;;;17.92;14.98;;;21.60;89.30;;;;;;4165892;28;20411;-61
2021/08/21 08:59:56;;;;;;;16.02;14.32;;;21.60;89.20;;;;;;4176388;28;20057;-62
2021/08/21 09:02:33;;;;;;;15.85;14.25;;;21.70;89.20;;;;;;4176361;28;20547;-62
2021/08/21 09:05:01;;;;;;;14.63;13.13;;;21.70;89.00;;;;;;4176248;28;20086;-61
2021/08/21 09:07:38;;;;;;;13.32;12.13;;;21.70;89.00;;;;;;4176351;28;20514;-61
2021/08/21 09:10:11;;;;;;;13.57;12.23;;;21.70;88.70;;;;;;4181521;28;20045;-62
2021/08/21 09:12:33;;;;;;;13.07;11.75;;;21.70;88.40;;;;;;4197292;28;20076;-61
2021/08/21 09:14:56;;;;;;;12.88;11.57;;;21.70;88.20;;;;;;4192690;28;20048;-62
2021/08/21 09:17:20;;;;;;;13.15;11.50;;;21.80;88.00;;;;;;4193099;28;20060;-62
2021/08/21 09:19:43;;;;;;;12.23;11.02;;;21.80;87.70;;;;;;4192538;28;20139;-61
2021/08/21 09:22:07;;;;;;;9.70;8.80;;;21.80;88.50;;;;;;4192747;28;20045;-61
2021/08/21 09:24:30;;;;;;;8.15;7.40;;;21.80;87.50;;;;;;4192589;28;20059;-61
2021/08/21 09:26:52;;;;;;;9.23;8.43;;;21.80;87.20;;;;;;4193060;28;20055;-61
2021/08/21 09:29:26;;;;;;;9.77;8.77;;;21.80;87.10;;;;;;4193923;28;20125;-62
2021/08/21 09:31:50;;;;;;;8.70;7.90;;;21.80;86.90;;;;;;4209166;28;20482;-61
2021/08/21 09:34:19;;;;;;;9.07;8.35;;;21.80;86.90;;;;;;4209421;28;20498;-61
2021/08/21 09:36:44;;;;;;;9.05;8.35;;;21.80;86.90;;;;;;4209063;28;20410;-61
2021/08/21 09:39:08;;;;;;;8.90;8.02;;;21.90;86.70;;;;;;4209227;28;20040;-61
2021/08/21 09:41:30;;;;;;;8.25;7.65;;;21.90;86.50;;;;;;4209263;28;20094;-61
2021/08/21 09:44:03;;;;;;;8.40;7.70;;;21.90;86.40;;;;;;4208710;28;20159;-61
2021/08/21 09:46:27;;;;;;;7.80;7.00;;;21.90;86.00;;;;;;4208671;28;20040;-62
2021/08/21 09:49:02;;;;;;;8.10;7.30;;;21.90;86.10;;;;;;4208348;28;20040;-61
2021/08/21 09:51:37;;;;;;;8.00;7.40;;;22.00;85.70;;;;;;4191671;28;20063;-61
2021/08/21 09:54:01;;;;;;;7.78;7.18;;;22.00;85.60;;;;;;4191938;28;20423;-61
2021/08/21 09:56:30;;;;;;;7.50;6.72;;;22.00;85.50;;;;;;4192117;28;20052;-62
2021/08/21 09:58:53;;;;;;;6.60;6.10;;;22.00;85.20;;;;;;4191267;28;20458;-62
2021/08/21 10:01:15;;;;;;;5.47;4.97;;;22.00;85.30;;;;;;4192582;28;20068;-62
2021/08/21 10:03:37;;;;;;;5.38;4.90;;;22.10;85.40;;;;;;4191849;28;20037;-61
2021/08/21 10:06:00;;;;;;;6.10;5.60;;;22.10;85.20;;;;;;4191816;28;20048;-61
2021/08/21 10:08:26;;;;;;;6.10;5.05;;;22.10;85.00;;;;;;4191924;28;20045;-62
2021/08/21 10:10:51;;;;;;;4.40;4.00;;;22.10;84.80;;;;;;4191907;28;20053;-62
2021/08/21 10:13:24;;;;;;;5.90;5.43;;;22.10;84.80;;;;;;4191898;28;20118;-61
2021/08/21 10:15:47;;;;;;;5.25;4.85;;;22.10;84.60;;;;;;4191756;28;20554;-61
2021/08/21 10:18:10;;;;;;;4.57;4.18;;;22.20;84.40;;;;;;4191722;28;20494;-62
2021/08/21 10:20:32;;;;;;;4.60;4.22;;;22.20;84.20;;;;;;4205810;28;20472;-61
2021/08/21 10:22:56;;;;;;;4.72;4.43;;;22.30;84.20;;;;;;4199129;28;20055;-62
2021/08/21 10:25:19;;;;;;;5.28;4.85;;;22.30;84.10;;;;;;4191679;28;20048;-62
2021/08/21 10:27:47;;;;;;;4.28;3.97;;;22.40;85.10;;;;;;4191768;28;20121;-61
2021/08/21 10:30:13;;;;;;;3.92;3.72;;;22.40;83.70;;;;;;4191357;28;20051;-62
2021/08/21 10:32:36;;;;;;;3.50;3.20;;;22.40;83.50;;;;;;4192179;28;20110;-62
2021/08/21 10:34:58;;;;;;;3.75;3.55;;;22.50;82.60;;;;;;4190189;28;20973;-61
2021/08/21 10:37:34;;;;;;;3.40;3.20;;;22.60;82.70;;;;;;4190399;28;20048;-62
2021/08/21 10:39:58;;;;;;;2.95;2.80;;;22.60;82.10;;;;;;4187097;28;20052;-60
2021/08/21 10:42:26;;;;;;;2.95;2.85;;;22.70;81.70;;;;;;4191488;28;20055;-61
2021/08/21 10:44:50;;;;;;;3.17;2.97;;;22.70;81.10;;;;;;4191249;28;20043;-61
2021/08/21 10:47:36;;;;;;;3.00;2.80;;;22.80;81.50;;;;;;4191343;28;20055;-60
2021/08/21 10:49:59;;;;;;;2.78;2.67;;;22.90;80.40;;;;;;4190637;28;20120;-61
2021/08/21 10:52:46;;;;;;;3.05;2.85;;;22.90;80.60;;;;;;4207807;28;20044;-61
2021/08/21 10:55:19;;;;;;;3.33;3.08;;;22.90;79.60;;;;;;4207781;28;20087;-61
2021/08/21 10:57:59;;;;;;;2.63;2.53;;;22.90;79.90;;;;;;4207551;28;20056;-62
2021/08/21 11:00:48;;;;;;;2.25;2.15;;;23.00;79.70;;;;;;4178832;28;20125;-61
2021/08/21 11:03:12;;;;;;;2.58;2.38;;;23.00;79.60;;;;;;4191130;28;20076;-61
2021/08/21 11:05:54;;;;;;;2.40;2.05;;;23.00;79.70;;;;;;4191216;28;20053;-61
2021/08/21 11:08:17;;;;;;;2.25;2.15;;;23.00;79.30;;;;;;4191209;28;20044;-62
2021/08/21 11:10:41;;;;;;;2.95;2.13;;;23.00;78.80;;;;;;4190618;28;20479;-61
2021/08/21 11:13:03;;;;;;;2.00;1.83;;;23.10;78.80;;;;;;4190848;28;20890;-61
2021/08/21 11:15:31;;;;;;;2.28;2.00;;;23.10;78.70;;;;;;4190242;28;20125;-61
2021/08/21 11:17:53;;;;;;;2.20;2.10;;;23.10;78.10;;;;;;4190590;28;20060;-61
2021/08/21 11:20:25;;;;;;;2.15;2.05;;;23.10;78.40;;;;;;4200974;28;20510;-61
2021/08/21 11:23:19;;;;;;;2.70;2.50;;;23.10;78.10;;;;;;4208123;28;20048;-61
2021/08/21 11:25:45;;;;;;;1.90;1.90;;;23.10;77.60;;;;;;4207349;28;20079;-61
2021/08/21 11:28:10;;;;;;;2.20;2.10;;;23.20;78.10;;;;;;4207230;28;20121;-61
2021/08/21 11:30:31;;;;;;;2.38;2.28;;;23.20;77.60;;;;;;4207940;28;20056;-61
2021/08/21 11:33:15;;;;;;;2.95;2.75;;;23.20;78.30;;;;;;4208121;28;20452;-61
2021/08/21 11:35:45;;;;;;;2.85;2.65;;;23.20;77.70;;;;;;4207576;28;20044;-61
2021/08/21 11:38:09;;;;;;;2.65;2.55;;;23.20;78.30;;;;;;4207308;28;20060;-61
2021/08/21 11:40:38;;;;;;;2.30;2.20;;;23.20;79.20;;;;;;4207374;28;20082;-60
2021/08/21 11:43:03;;;;;;;2.50;2.40;;;23.20;77.50;;;;;;4207402;28;20487;-61
2021/08/21 11:45:26;;;;;;;2.38;2.20;;;23.20;77.70;;;;;;4207888;28;20382;-61
2021/08/21 11:47:48;;;;;;;2.22;2.03;;;23.20;77.70;;;;;;4207599;28;20440;-61
2021/08/21 11:50:29;;;;;;;2.80;1.90;;;23.20;78.10;;;;;;4207309;28;20068;-61
2021/08/21 11:52:53;;;;;;;2.35;2.15;;;23.20;76.80;;;;;;4203737;28;20083;-61
2021/08/21 11:55:15;;;;;;;1.83;1.80;;;23.20;77.50;;;;;;4190727;28;20414;-61
2021/08/21 11:57:42;;;;;;;2.13;2.03;;;23.20;77.90;;;;;;4191370;28;20411;-61
2021/08/21 12:00:14;;;;;;;1.20;1.20;;;23.20;77.40;;;;;;4191338;28;20149;-59
2021/08/21 12:02:45;;;;;;;1.40;1.40;;;23.20;77.20;;;;;;4190421;28;20045;-61
2021/08/21 12:05:07;;;;;;;1.95;1.60;;;23.20;76.00;;;;;;4190413;28;20494;-61
2021/08/21 12:07:33;;;;;;;1.65;1.60;;;23.20;76.70;;;;;;4191031;28;20410;-61
2021/08/21 12:09:58;;;;;;;3.33;1.60;;;23.20;75.50;;;;;;4190915;28;20123;-61
2021/08/21 12:12:21;;;;;;;1.30;1.30;;;23.20;75.50;;;;;;4190727;28;20048;-61
2021/08/21 12:14:43;;;;;;;1.30;1.30;;;23.20;75.50;;;;;;4190717;28;20049;-60
2021/08/21 12:17:07;;;;;;;1.50;1.50;;;23.20;75.00;;;;;;4190958;28;20048;-61
2021/08/21 12:19:31;;;;;;;1.40;1.30;;;23.20;76.40;;;;;;4190649;28;20414;-61
2021/08/21 12:21:56;;;;;;;1.58;1.58;;;23.20;75.60;;;;;;4192779;28;20060;-61
2021/08/21 12:24:18;;;;;;;2.10;1.33;;;23.20;75.00;;;;;;4193539;28;20048;-61
2021/08/21 12:26:42;;;;;;;1.48;1.48;;;23.20;75.50;;;;;;4193402;28;20517;-61
2021/08/21 12:29:06;;;;;;;1.63;1.52;;;23.20;75.50;;;;;;4193911;28;20041;-61